Time;durP1;ratioP1;P1;durP2;ratioP2;P2;SDS_P1;SDS_P2;PMS_P1;PMS_P2;Temp;Humidity;BMP_temperature;BMP_pressure;BME280_temperature;BME280_humidity;BME280_pressure;Samples;Min_cycle;Max_cycle;Signal;HPM_P1;HPM_P2
2022/08/12 00:44:23;;;;;;;1.03;0.90;;;23.00;98.60;;;;;;5037352;28;20248;-81
2022/08/12 00:46:55;;;;;;;0.67;0.67;;;23.00;98.60;;;;;;5031717;28;20241;-81
2022/08/12 00:49:22;;;;;;;0.60;0.60;;;23.00;98.60;;;;;;5034681;28;20195;-81
2022/08/12 00:52:05;;;;;;;0.40;0.40;;;23.00;98.70;;;;;;5034035;28;20556;-81
2022/08/12 00:54:33;;;;;;;0.30;0.30;;;23.00;98.60;;;;;;5036254;28;20202;-81
2022/08/12 00:57:21;;;;;;;0.70;0.70;;;23.00;98.60;;;;;;5031188;28;20176;-81
2022/08/12 01:00:03;;;;;;;0.50;0.50;;;23.00;98.60;;;;;;5045442;28;20389;-81
2022/08/12 01:02:31;;;;;;;0.43;0.43;;;23.00;98.60;;;;;;5039644;28;20187;-81
2022/08/12 01:13:26;;;;;;;0.70;0.70;;;22.80;98.70;;;;;;5033928;28;20229;-81
2022/08/12 01:15:57;;;;;;;0.60;0.47;;;22.80;98.70;;;;;;5031424;28;20185;-81
2022/08/12 01:18:26;;;;;;;0.50;0.50;;;22.80;98.80;;;;;;5038689;28;20240;-81
2022/08/12 01:20:59;;;;;;;0.30;0.30;;;22.80;98.90;;;;;;5033690;28;20743;-81
2022/08/12 01:23:59;;;;;;;0.47;0.40;;;22.70;98.90;;;;;;5033242;28;20256;-81
2022/08/12 01:26:25;;;;;;;3.50;0.77;;;22.70;99.00;;;;;;5034366;28;20186;-81
2022/08/12 01:28:57;;;;;;;0.30;0.30;;;22.70;99.00;;;;;;5030959;28;20758;-82
2022/08/12 01:31:25;;;;;;;0.30;0.30;;;22.70;99.00;;;;;;5035196;28;20220;-81
2022/08/12 01:34:03;;;;;;;1.93;0.63;;;22.60;99.10;;;;;;5035045;28;20202;-81
2022/08/12 01:36:36;;;;;;;0.47;0.47;;;22.60;99.10;;;;;;5035582;28;20206;-81
2022/08/12 01:39:03;;;;;;;0.67;0.67;;;22.60;99.20;;;;;;5028807;28;20186;-81
2022/08/12 01:41:34;;;;;;;0.60;0.60;;;22.60;99.20;;;;;;5027769;28;20231;-81
2022/08/12 01:44:00;;;;;;;1.53;1.43;;;22.50;99.30;;;;;;5030682;28;21000;-82
2022/08/12 01:47:04;;;;;;;0.70;0.70;;;22.50;99.40;;;;;;5035035;28;20178;-81
2022/08/12 01:49:49;;;;;;;0.40;0.40;;;22.50;99.40;;;;;;5031385;28;20201;-81
2022/08/12 01:52:47;;;;;;;0.70;0.40;;;22.40;99.40;;;;;;5031074;28;20182;-81
2022/08/12 01:55:18;;;;;;;0.30;0.30;;;22.40;99.60;;;;;;5031254;28;20199;-81
2022/08/12 01:58:01;;;;;;;0.50;0.50;;;22.40;99.60;;;;;;5028513;28;20254;-81
2022/08/12 02:00:43;;;;;;;0.70;0.70;;;22.40;99.70;;;;;;5031030;28;20198;-81
2022/08/12 02:12:56;;;;;;;0.50;0.50;;;22.30;99.90;;;;;;5024935;28;20590;-81
2022/08/12 02:15:58;;;;;;;1.07;0.60;;;22.30;99.90;;;;;;5031818;28;20675;-81
2022/08/12 02:18:51;;;;;;;0.43;0.43;;;22.30;99.90;;;;;;5030731;28;20182;-82
2022/08/12 02:21:46;;;;;;;0.80;0.40;;;22.20;99.90;;;;;;5029299;28;20252;-81
2022/08/12 02:24:20;;;;;;;0.53;0.53;;;22.30;99.90;;;;;;5033452;28;20292;-82
2022/08/12 02:26:47;;;;;;;0.53;0.37;;;22.20;99.90;;;;;;5030756;28;20588;-82
2022/08/12 02:29:13;;;;;;;0.40;0.40;;;22.20;99.90;;;;;;5032730;28;20236;-81
2022/08/12 02:31:42;;;;;;;0.80;0.57;;;22.10;99.90;;;;;;5033475;28;20194;-81
2022/08/12 02:34:08;;;;;;;0.30;0.30;;;22.10;99.90;;;;;;5028769;28;20572;-82
2022/08/12 02:36:37;;;;;;;0.53;0.40;;;22.00;99.90;;;;;;5029032;28;20182;-81
2022/08/12 02:39:04;;;;;;;0.53;0.43;;;22.00;99.90;;;;;;5027790;28;20580;-81
2022/08/12 02:41:33;;;;;;;0.23;0.23;;;21.90;99.90;;;;;;5034881;28;20183;-81
2022/08/12 02:44:03;;;;;;;4.63;0.50;;;22.00;99.90;;;;;;5031652;28;20209;-81
2022/08/12 02:46:33;;;;;;;1.63;1.53;;;21.90;99.90;;;;;;5032077;28;20234;-81
2022/08/12 02:49:14;;;;;;;0.60;0.60;;;21.80;99.90;;;;;;5037221;28;20289;-81
2022/08/12 02:51:45;;;;;;;0.63;0.50;;;21.80;99.90;;;;;;5032005;28;20194;-81
2022/08/12 02:54:11;;;;;;;0.30;0.30;;;21.80;99.90;;;;;;5023727;28;21783;-82
2022/08/12 02:56:40;;;;;;;0.40;0.40;;;21.80;99.90;;;;;;5030894;28;20273;-81
2022/08/12 02:59:09;;;;;;;0.33;0.30;;;21.80;99.90;;;;;;5028977;28;20265;-82
2022/08/12 03:01:42;;;;;;;1.20;0.67;;;21.60;99.90;;;;;;5035332;28;20221;-81
2022/08/12 03:04:16;;;;;;;0.30;0.30;;;21.70;99.90;;;;;;5039528;28;20202;-82
2022/08/12 03:06:59;;;;;;;0.50;0.50;;;21.60;99.90;;;;;;5026003;28;20264;-82
2022/08/12 03:09:28;;;;;;;0.80;0.60;;;21.50;99.90;;;;;;5033709;28;20178;-81
2022/08/12 03:12:04;;;;;;;0.30;0.30;;;21.40;99.90;;;;;;5033364;28;20552;-81
2022/08/12 03:14:33;;;;;;;0.30;0.30;;;21.30;99.90;;;;;;5037485;28;20209;-81
2022/08/12 03:17:10;;;;;;;0.57;0.40;;;21.20;99.90;;;;;;5031856;28;20191;-81
2022/08/12 03:19:39;;;;;;;0.60;0.50;;;21.20;99.90;;;;;;5033668;28;20210;-81
2022/08/12 03:22:11;;;;;;;0.70;0.60;;;21.20;99.90;;;;;;5032468;28;20217;-82
2022/08/12 03:24:43;;;;;;;0.70;0.40;;;21.10;99.90;;;;;;5031775;28;20586;-81
2022/08/12 03:27:12;;;;;;;0.30;0.30;;;21.20;99.90;;;;;;5028919;28;20273;-82
2022/08/12 03:29:38;;;;;;;0.50;0.50;;;21.10;99.90;;;;;;5031647;28;20209;-81
2022/08/12 03:32:05;;;;;;;0.40;0.40;;;21.10;99.90;;;;;;5032662;28;20618;-81
2022/08/12 03:34:36;;;;;;;0.73;0.73;;;21.10;99.90;;;;;;5034077;28;20206;-81
2022/08/12 03:37:03;;;;;;;0.43;0.43;;;21.10;99.90;;;;;;5033383;28;21078;-81
2022/08/12 03:42:24;;;;;;;0.77;0.77;;;21.10;99.90;;;;;;5032273;28;20183;-79
2022/08/12 04:01:48;;;;;;;0.90;0.90;;;20.90;99.90;;;;;;5024022;28;20265;-81
2022/08/12 04:04:15;;;;;;;0.67;0.40;;;20.90;99.90;;;;;;5038344;28;20609;-81
2022/08/12 04:06:44;;;;;;;0.40;0.40;;;20.80;99.90;;;;;;5027961;28;20244;-81
2022/08/12 04:09:11;;;;;;;0.50;0.50;;;20.80;99.90;;;;;;5026645;28;20597;-81
2022/08/12 04:14:26;;;;;;;1.13;0.40;;;20.80;99.90;;;;;;5029264;28;20293;-81
2022/08/12 04:16:52;;;;;;;0.50;0.50;;;20.80;99.90;;;;;;5031203;28;20202;-80
2022/08/12 04:19:18;;;;;;;0.30;0.30;;;20.80;99.90;;;;;;5027393;28;20973;-81
2022/08/12 04:21:44;;;;;;;0.57;0.57;;;20.80;99.90;;;;;;5028243;28;20190;-81
2022/08/12 04:24:10;;;;;;;0.40;0.40;;;20.80;99.90;;;;;;5022415;28;20636;-81
2022/08/12 04:26:38;;;;;;;0.63;0.63;;;20.80;99.90;;;;;;5026091;28;20190;-81
2022/08/12 04:29:03;;;;;;;0.73;0.73;;;20.80;99.90;;;;;;5031005;28;20558;-81
2022/08/12 04:31:38;;;;;;;0.40;0.40;;;20.80;99.90;;;;;;5026848;28;20206;-80
2022/08/12 04:34:06;;;;;;;0.33;0.33;;;20.80;99.90;;;;;;5031360;28;20208;-81
2022/08/12 04:36:31;;;;;;;0.30;0.30;;;20.80;99.90;;;;;;5033071;28;20182;-81
2022/08/12 04:38:58;;;;;;;0.40;0.40;;;20.80;99.90;;;;;;5032097;28;20989;-81
2022/08/12 04:41:24;;;;;;;0.27;0.27;;;20.80;99.90;;;;;;5036702;28;20186;-81
2022/08/12 04:43:50;;;;;;;0.27;0.27;;;20.80;99.90;;;;;;5027439;28;20214;-81
2022/08/12 04:46:16;;;;;;;0.60;0.60;;;20.70;99.90;;;;;;5029632;28;20279;-81
2022/08/12 04:48:42;;;;;;;0.50;0.50;;;20.70;99.90;;;;;;5027555;28;20253;-80
2022/08/12 04:51:07;;;;;;;0.80;0.80;;;20.80;99.90;;;;;;5026556;28;20210;-81
2022/08/12 04:53:33;;;;;;;0.17;0.17;;;20.80;99.90;;;;;;5024875;28;20189;-81
2022/08/12 04:55:59;;;;;;;0.20;0.20;;;20.80;99.90;;;;;;5026977;28;20190;-81
2022/08/12 04:58:26;;;;;;;0.30;0.30;;;20.80;99.90;;;;;;5030709;28;20660;-81
2022/08/12 05:00:52;;;;;;;1.33;0.43;;;20.80;99.90;;;;;;5030902;28;20210;-81
2022/08/12 05:03:18;;;;;;;0.60;0.60;;;20.80;99.90;;;;;;5030279;28;20576;-81
2022/08/12 05:05:44;;;;;;;0.67;0.67;;;20.80;99.90;;;;;;5031297;28;20206;-81
2022/08/12 05:08:15;;;;;;;0.47;0.47;;;20.80;99.90;;;;;;5025323;28;20195;-81
2022/08/12 05:10:43;;;;;;;0.73;0.70;;;20.90;99.90;;;;;;5036658;28;20213;-81
2022/08/12 05:13:13;;;;;;;0.60;0.60;;;20.90;99.90;;;;;;5026925;28;20311;-81
2022/08/12 05:15:40;;;;;;;0.40;0.40;;;21.00;99.90;;;;;;5031708;28;20217;-81
2022/08/12 05:18:05;;;;;;;0.30;0.30;;;21.10;99.90;;;;;;5030282;28;20190;-81
2022/08/12 05:20:31;;;;;;;0.43;0.43;;;21.20;99.90;;;;;;5030393;28;20186;-81
2022/08/12 05:23:13;;;;;;;0.37;0.37;;;21.20;99.90;;;;;;5032122;28;20246;-82
2022/08/12 05:25:42;;;;;;;0.40;0.40;;;21.40;99.90;;;;;;5030161;28;20220;-81
2022/08/12 05:28:09;;;;;;;0.50;0.50;;;21.60;99.90;;;;;;5030689;28;20220;-82
2022/08/12 05:30:35;;;;;;;0.70;0.70;;;21.60;99.90;;;;;;5029983;28;20681;-81
2022/08/12 05:33:05;;;;;;;0.40;0.40;;;21.70;99.90;;;;;;5030663;28;20656;-81
2022/08/12 05:35:42;;;;;;;0.53;0.53;;;21.80;99.90;;;;;;5026777;28;20241;-81
2022/08/12 05:40:53;;;;;;;1.13;0.57;;;21.90;99.90;;;;;;5038243;28;20507;-82
2022/08/12 05:43:19;;;;;;;0.20;0.20;;;22.00;99.90;;;;;;5044305;28;20236;-82
2022/08/12 05:45:45;;;;;;;8.27;0.77;;;22.10;99.90;;;;;;5040044;28;20214;-82
2022/08/12 05:48:12;;;;;;;0.47;0.47;;;22.10;99.90;;;;;;5040369;28;20205;-82
2022/08/12 05:50:39;;;;;;;1.30;0.50;;;22.20;99.90;;;;;;5041581;28;20210;-82
2022/08/12 05:53:05;;;;;;;0.70;0.30;;;22.30;99.90;;;;;;5038242;28;20242;-81
2022/08/12 05:55:32;;;;;;;0.50;0.50;;;22.30;99.90;;;;;;5021027;28;20205;-81
2022/08/12 05:57:58;;;;;;;0.40;0.40;;;22.40;99.90;;;;;;5031586;28;20536;-81
2022/08/12 06:00:24;;;;;;;0.47;0.47;;;22.50;99.90;;;;;;5025183;28;20717;-82
2022/08/12 06:03:00;;;;;;;0.40;0.40;;;22.60;99.90;;;;;;5025341;28;20222;-82
2022/08/12 06:05:34;;;;;;;0.30;0.30;;;22.80;99.90;;;;;;5028074;28;20713;-81
2022/08/12 06:08:04;;;;;;;0.50;0.50;;;23.00;99.90;;;;;;5027220;28;20214;-82
2022/08/12 06:10:31;;;;;;;0.30;0.30;;;23.10;99.90;;;;;;5032545;28;20691;-82
2022/08/12 06:12:57;;;;;;;0.33;0.33;;;23.10;99.90;;;;;;5031739;28;20206;-81
2022/08/12 06:15:23;;;;;;;0.30;0.30;;;23.20;99.90;;;;;;5031118;28;20615;-81
2022/08/12 06:17:48;;;;;;;0.60;0.60;;;23.20;99.90;;;;;;5031848;28;20253;-81
2022/08/12 06:20:14;;;;;;;0.50;0.50;;;23.30;99.90;;;;;;5029849;28;20289;-82
2022/08/12 06:22:44;;;;;;;0.50;0.50;;;23.50;99.90;;;;;;5032492;28;20220;-82
2022/08/12 06:25:12;;;;;;;0.40;0.40;;;23.70;99.90;;;;;;5032622;28;22137;-81
2022/08/12 06:27:47;;;;;;;0.50;0.50;;;23.60;99.90;;;;;;5032229;28;20194;-81
2022/08/12 06:30:14;;;;;;;1.43;0.70;;;23.70;99.90;;;;;;5028282;28;20556;-81
2022/08/12 06:32:42;;;;;;;0.47;0.47;;;23.50;99.90;;;;;;5033849;28;20679;-81
2022/08/12 06:35:10;;;;;;;0.57;0.57;;;23.60;99.90;;;;;;5028419;28;20206;-81
2022/08/12 06:37:48;;;;;;;2.57;0.70;;;23.70;99.90;;;;;;5029595;28;20182;-81
2022/08/12 06:40:15;;;;;;;1.23;0.73;;;23.60;99.90;;;;;;5034022;28;20183;-81
2022/08/12 06:42:53;;;;;;;8.23;0.50;;;23.80;99.90;;;;;;5030718;28;20190;-81
2022/08/12 06:45:19;;;;;;;0.67;0.67;;;24.00;99.90;;;;;;5023613;28;20209;-81
2022/08/12 06:47:45;;;;;;;1.53;0.73;;;24.00;99.90;;;;;;5022753;28;20179;-81
2022/08/12 06:50:14;;;;;;;0.40;0.40;;;23.90;99.90;;;;;;5025913;28;20289;-81
2022/08/12 06:52:40;;;;;;;0.73;0.50;;;24.00;99.90;;;;;;5032315;28;20178;-81
2022/08/12 06:55:07;;;;;;;0.67;0.67;;;24.00;99.90;;;;;;5041818;28;20604;-81
2022/08/12 06:57:50;;;;;;;0.50;0.50;;;24.20;99.90;;;;;;5039613;28;20193;-81
2022/08/12 07:00:21;;;;;;;0.97;0.47;;;24.20;99.90;;;;;;5025490;28;20193;-81
2022/08/12 07:02:46;;;;;;;0.53;0.47;;;24.60;99.90;;;;;;5048997;28;20188;-81
2022/08/12 07:05:12;;;;;;;0.70;0.70;;;24.40;99.90;;;;;;5031877;28;20206;-82
2022/08/12 07:07:38;;;;;;;0.40;0.40;;;24.40;99.90;;;;;;5025357;28;20187;-81
2022/08/12 07:10:03;;;;;;;0.40;0.40;;;24.50;99.90;;;;;;5029750;28;20711;-81
2022/08/12 07:12:30;;;;;;;0.40;0.40;;;24.50;99.90;;;;;;5046619;28;20201;-81
2022/08/12 07:14:57;;;;;;;0.50;0.50;;;24.80;99.90;;;;;;5029218;28;20738;-81
2022/08/12 07:17:23;;;;;;;3.20;1.03;;;24.50;99.90;;;;;;5032116;28;20325;-81
2022/08/12 07:19:50;;;;;;;1.13;0.90;;;24.60;99.90;;;;;;5035526;28;20655;-82
2022/08/12 07:22:16;;;;;;;0.80;0.80;;;24.90;99.90;;;;;;5028061;28;20183;-82
2022/08/12 07:24:42;;;;;;;0.60;0.60;;;25.00;99.90;;;;;;5029236;28;20209;-81
2022/08/12 07:27:08;;;;;;;0.30;0.30;;;24.90;99.90;;;;;;5028256;28;20674;-81
2022/08/12 07:29:33;;;;;;;0.20;0.20;;;25.00;99.80;;;;;;5031490;28;20182;-82
2022/08/12 07:31:59;;;;;;;0.63;0.63;;;25.20;99.40;;;;;;5027834;28;20198;-82
2022/08/12 07:34:25;;;;;;;0.67;0.67;;;25.20;99.50;;;;;;5025743;28;20248;-81
2022/08/12 07:36:51;;;;;;;0.50;0.50;;;25.30;99.60;;;;;;5030762;28;20592;-82
2022/08/12 07:39:17;;;;;;;0.40;0.40;;;25.30;99.60;;;;;;5037386;28;20183;-81
2022/08/12 07:41:43;;;;;;;0.90;0.77;;;25.20;99.50;;;;;;5031074;28;20205;-82
2022/08/12 07:44:09;;;;;;;0.57;0.57;;;25.10;99.00;;;;;;5027271;28;20248;-82
2022/08/12 07:46:38;;;;;;;0.57;0.57;;;25.10;99.80;;;;;;5031069;28;20213;-81
2022/08/12 07:49:07;;;;;;;1.80;1.70;;;24.90;99.30;;;;;;5040769;28;20202;-82
2022/08/12 07:51:34;;;;;;;0.77;0.77;;;24.80;99.40;;;;;;5040647;28;20722;-82
2022/08/12 07:54:02;;;;;;;1.07;0.50;;;24.90;99.30;;;;;;5041047;28;20204;-81
2022/08/12 07:56:29;;;;;;;0.30;0.30;;;25.00;99.30;;;;;;5038485;28;20182;-81
2022/08/12 07:58:57;;;;;;;0.53;0.53;;;25.10;99.20;;;;;;5044377;28;20278;-81
2022/08/12 08:01:23;;;;;;;2.73;1.40;;;25.60;99.30;;;;;;5032839;28;20627;-81
2022/08/12 08:06:40;;;;;;;0.50;0.50;;;25.00;99.00;;;;;;5040747;28;20567;-81
2022/08/12 08:09:11;;;;;;;0.40;0.40;;;25.40;99.50;;;;;;5020584;28;20183;-82
2022/08/12 08:14:24;;;;;;;1.03;0.60;;;25.60;99.00;;;;;;5026573;28;20293;-81
2022/08/12 08:16:49;;;;;;;0.57;0.40;;;25.90;99.20;;;;;;5034790;28;20524;-81
2022/08/12 08:19:21;;;;;;;0.67;0.30;;;26.10;98.80;;;;;;5030667;28;20187;-82
2022/08/12 08:21:47;;;;;;;0.40;0.40;;;26.10;99.30;;;;;;5025105;28;20201;-82
2022/08/12 08:24:15;;;;;;;1.93;0.60;;;25.80;99.10;;;;;;5028084;28;20209;-81
2022/08/12 08:26:49;;;;;;;2.13;0.63;;;26.00;98.90;;;;;;5029354;28;20273;-82
2022/08/12 08:29:16;;;;;;;0.40;0.40;;;25.80;98.70;;;;;;5024964;28;20257;-82
2022/08/12 08:31:44;;;;;;;1.90;0.50;;;25.70;98.70;;;;;;5029580;28;20218;-81
2022/08/12 08:34:14;;;;;;;0.30;0.30;;;26.00;98.80;;;;;;5022410;28;20249;-82
2022/08/12 08:36:40;;;;;;;0.60;0.60;;;26.10;98.90;;;;;;5024895;28;20551;-82
2022/08/12 08:39:12;;;;;;;0.33;0.30;;;26.10;98.50;;;;;;5027156;28;20187;-82
2022/08/12 08:44:23;;;;;;;0.63;0.63;;;26.80;98.80;;;;;;5030653;28;20275;-81
2022/08/12 08:46:49;;;;;;;0.83;0.83;;;27.00;98.10;;;;;;5029853;28;20185;-81
2022/08/12 08:49:16;;;;;;;0.60;0.60;;;27.30;98.40;;;;;;5038018;28;22242;-81
2022/08/12 08:51:46;;;;;;;0.80;0.80;;;27.40;98.00;;;;;;5033155;28;20221;-82
2022/08/12 08:54:12;;;;;;;0.30;0.30;;;27.40;97.80;;;;;;5036020;28;20211;-81
2022/08/12 08:56:48;;;;;;;0.75;0.75;;;27.50;97.20;;;;;;5030582;28;20194;-82
2022/08/12 08:59:15;;;;;;;0.45;0.43;;;27.10;97.50;;;;;;5029937;28;20727;-82
2022/08/12 09:01:41;;;;;;;1.63;1.52;;;27.20;97.30;;;;;;5029174;28;20234;-81
2022/08/12 09:04:09;;;;;;;1.45;1.35;;;27.10;97.20;;;;;;5032188;28;20211;-82
2022/08/12 09:06:35;;;;;;;0.73;0.73;;;27.20;97.80;;;;;;5030888;28;20178;-80
2022/08/12 09:09:03;;;;;;;0.73;0.73;;;27.50;97.40;;;;;;5029780;28;20183;-81
2022/08/12 09:14:12;;;;;;;0.68;0.55;;;27.80;97.20;;;;;;5027192;28;21333;-81
2022/08/12 09:16:39;;;;;;;0.63;0.63;;;27.90;97.10;;;;;;5026374;28;20187;-81
2022/08/12 09:19:06;;;;;;;0.35;0.35;;;27.60;97.10;;;;;;5034433;28;20182;-81
2022/08/12 09:21:32;;;;;;;1.27;0.90;;;27.70;96.80;;;;;;5028622;28;20560;-84
2022/08/12 09:24:00;;;;;;;0.30;0.30;;;27.80;96.50;;;;;;5032747;28;20198;-81
2022/08/12 09:26:29;;;;;;;0.50;0.50;;;27.80;96.10;;;;;;5029871;28;20191;-81
2022/08/12 09:28:56;;;;;;;0.52;0.52;;;27.60;96.20;;;;;;5031745;28;20183;-81
2022/08/12 09:31:22;;;;;;;0.85;0.85;;;27.40;96.20;;;;;;5033245;28;20287;-81
2022/08/12 09:33:49;;;;;;;0.65;0.65;;;27.50;96.20;;;;;;5031673;28;20330;-82
2022/08/12 09:36:16;;;;;;;0.50;0.50;;;27.60;96.50;;;;;;5031884;28;20179;-82
2022/08/12 09:38:42;;;;;;;0.65;0.65;;;28.00;96.20;;;;;;5028602;28;20644;-81
2022/08/12 09:41:08;;;;;;;0.57;0.57;;;27.70;96.00;;;;;;5029066;28;20186;-81
2022/08/12 09:46:18;;;;;;;0.47;0.47;;;28.00;96.20;;;;;;5024833;28;20265;-82
2022/08/12 09:48:43;;;;;;;0.38;0.38;;;27.90;96.10;;;;;;5029230;28;20246;-82
2022/08/12 09:51:11;;;;;;;0.40;0.40;;;27.70;96.00;;;;;;5027688;28;20656;-82
2022/08/12 09:53:38;;;;;;;0.43;0.40;;;27.80;96.40;;;;;;5028759;28;20174;-82
2022/08/12 09:56:06;;;;;;;0.52;0.52;;;28.00;96.10;;;;;;5031150;28;20202;-82
2022/08/12 09:58:33;;;;;;;0.50;0.50;;;28.10;95.30;;;;;;5030454;28;20192;-82
2022/08/12 10:01:05;;;;;;;0.65;0.65;;;28.30;95.70;;;;;;5027311;28;20671;-82
2022/08/12 10:03:32;;;;;;;0.52;0.52;;;28.30;95.90;;;;;;5037012;28;20186;-82
2022/08/12 10:05:59;;;;;;;0.73;0.73;;;28.20;95.90;;;;;;5027414;28;20711;-81
2022/08/12 10:08:29;;;;;;;1.00;1.00;;;28.50;95.90;;;;;;5033612;28;20603;-81
2022/08/12 10:13:42;;;;;;;0.40;0.40;;;28.30;95.60;;;;;;5036885;28;20193;-81
2022/08/12 10:16:16;;;;;;;0.40;0.40;;;28.10;95.50;;;;;;5033807;28;20178;-81
2022/08/12 10:18:43;;;;;;;0.70;0.65;;;28.40;96.00;;;;;;5027055;28;20185;-81
2022/08/12 10:21:12;;;;;;;0.50;0.50;;;28.20;95.80;;;;;;5032544;28;20300;-82
2022/08/12 10:23:40;;;;;;;0.60;0.60;;;28.60;95.40;;;;;;5032917;28;20211;-81
2022/08/12 10:31:38;;;;;;;0.55;0.55;;;28.70;95.30;;;;;;5035033;28;20232;-79
2022/08/12 10:34:08;;;;;;;0.30;0.30;;;29.20;95.30;;;;;;5029012;28;20278;-79
2022/08/12 10:36:37;;;;;;;1.08;0.45;;;28.80;94.70;;;;;;5031836;28;20205;-79
2022/08/12 10:39:03;;;;;;;0.43;0.43;;;28.60;95.00;;;;;;5028554;28;20273;-80
2022/08/12 10:44:14;;;;;;;1.15;0.57;;;29.10;94.60;;;;;;5030779;28;20221;-81
2022/08/12 10:46:41;;;;;;;0.60;0.60;;;29.20;94.50;;;;;;5030627;28;20190;-80
2022/08/12 10:49:07;;;;;;;0.50;0.50;;;28.90;94.20;;;;;;5027473;28;20260;-80
2022/08/12 10:51:32;;;;;;;0.20;0.20;;;29.10;94.40;;;;;;5025589;28;20194;-80
2022/08/12 10:53:58;;;;;;;1.63;1.55;;;29.40;94.40;;;;;;5033318;28;20749;-81
2022/08/12 10:56:23;;;;;;;0.40;0.40;;;29.10;94.50;;;;;;5040783;28;20185;-81
2022/08/12 10:58:49;;;;;;;0.32;0.32;;;29.10;94.20;;;;;;5040063;28;20170;-80
2022/08/12 11:01:15;;;;;;;0.55;0.55;;;29.60;93.60;;;;;;5035163;28;20558;-80
2022/08/12 11:03:41;;;;;;;0.75;0.75;;;29.70;93.20;;;;;;5042840;28;20186;-80
2022/08/12 11:06:09;;;;;;;0.60;0.60;;;29.70;93.80;;;;;;5034857;28;20530;-80
2022/08/12 11:08:39;;;;;;;0.52;0.40;;;29.30;93.40;;;;;;5032730;28;20182;-79
2022/08/12 11:11:07;;;;;;;1.13;0.75;;;29.60;94.20;;;;;;5041106;28;20200;-80
2022/08/12 11:13:35;;;;;;;0.88;0.55;;;29.10;93.30;;;;;;5042093;28;20175;-79
2022/08/12 11:16:01;;;;;;;0.22;0.22;;;28.80;93.10;;;;;;5035712;28;20178;-80
2022/08/12 11:18:27;;;;;;;0.38;0.38;;;29.10;93.20;;;;;;5036037;28;20250;-79
2022/08/12 11:20:53;;;;;;;0.25;0.25;;;29.50;93.60;;;;;;5040429;28;20658;-80
2022/08/12 11:23:20;;;;;;;1.08;0.47;;;29.20;93.00;;;;;;5037731;28;20290;-79
2022/08/12 11:25:46;;;;;;;0.57;0.57;;;29.40;92.70;;;;;;5041354;28;20205;-79
2022/08/12 11:28:12;;;;;;;0.55;0.55;;;29.30;93.30;;;;;;5038768;28;20186;-79
2022/08/12 11:30:38;;;;;;;0.63;0.47;;;29.20;93.90;;;;;;5038442;28;20206;-79
2022/08/12 11:33:04;;;;;;;0.30;0.30;;;29.00;93.90;;;;;;5037367;28;20531;-80
2022/08/12 11:35:29;;;;;;;0.57;0.55;;;29.20;93.70;;;;;;5041249;28;20190;-80
2022/08/12 11:37:55;;;;;;;0.60;0.60;;;29.40;93.70;;;;;;5037740;28;20186;-80
2022/08/12 11:40:20;;;;;;;0.32;0.32;;;29.50;93.50;;;;;;5036900;28;20852;-80
2022/08/12 11:42:46;;;;;;;1.10;0.40;;;29.50;93.70;;;;;;5043315;28;20567;-80
2022/08/12 11:45:11;;;;;;;0.68;0.68;;;29.60;93.90;;;;;;5035574;28;20206;-80
2022/08/12 11:47:37;;;;;;;0.57;0.57;;;29.50;93.60;;;;;;5036769;28;20190;-80
2022/08/12 11:50:04;;;;;;;1.35;0.77;;;29.20;93.40;;;;;;5039389;28;20253;-80
2022/08/12 11:52:29;;;;;;;0.50;0.50;;;29.50;93.10;;;;;;5040304;28;20201;-80
2022/08/12 11:54:55;;;;;;;0.40;0.40;;;29.20;93.50;;;;;;5034742;28;20199;-80
2022/08/12 11:57:20;;;;;;;0.90;0.65;;;29.30;93.80;;;;;;5034473;28;20222;-80
2022/08/12 11:59:46;;;;;;;0.68;0.68;;;29.50;93.30;;;;;;5039231;28;20183;-80
2022/08/12 12:02:12;;;;;;;0.52;0.52;;;29.70;93.20;;;;;;5031472;28;20218;-81
2022/08/12 12:04:37;;;;;;;0.50;0.50;;;29.10;92.90;;;;;;5032405;28;20213;-81
2022/08/12 12:07:03;;;;;;;0.77;0.50;;;29.10;92.90;;;;;;5038142;28;20189;-80
2022/08/12 12:09:28;;;;;;;0.40;0.40;;;29.20;93.20;;;;;;5043453;28;20189;-81
2022/08/12 12:11:54;;;;;;;0.85;0.85;;;29.10;93.10;;;;;;5032191;28;20255;-80
2022/08/12 12:14:20;;;;;;;0.65;0.65;;;28.90;93.10;;;;;;5034319;28;20209;-80
2022/08/12 12:16:45;;;;;;;0.40;0.40;;;29.70;93.10;;;;;;5036296;28;20181;-80
2022/08/12 12:19:11;;;;;;;0.40;0.40;;;29.80;92.70;;;;;;5036573;28;20257;-81
2022/08/12 12:21:38;;;;;;;0.50;0.50;;;30.00;93.10;;;;;;5041149;28;20178;-81
2022/08/12 12:24:04;;;;;;;0.57;0.57;;;30.00;92.60;;;;;;5040527;28;20216;-80
2022/08/12 12:26:30;;;;;;;0.57;0.57;;;29.60;92.40;;;;;;5053386;28;20182;-81
2022/08/12 12:28:55;;;;;;;0.57;0.50;;;29.70;92.20;;;;;;5041288;28;20181;-80
2022/08/12 12:31:23;;;;;;;0.73;0.73;;;29.50;92.10;;;;;;5051074;28;20205;-80
2022/08/12 12:33:48;;;;;;;0.40;0.35;;;29.40;92.60;;;;;;5046379;28;20571;-81
2022/08/12 12:36:14;;;;;;;0.50;0.50;;;29.50;92.00;;;;;;5046171;28;20178;-81
2022/08/12 12:38:39;;;;;;;0.85;0.52;;;29.90;92.20;;;;;;5051583;28;20474;-81
2022/08/12 12:41:05;;;;;;;0.40;0.40;;;29.80;91.90;;;;;;5050795;28;20182;-80
2022/08/12 12:43:30;;;;;;;0.30;0.30;;;30.30;92.30;;;;;;5038999;28;20182;-80
2022/08/12 12:45:56;;;;;;;1.20;1.10;;;30.30;91.70;;;;;;5039726;28;20274;-80
2022/08/12 12:48:22;;;;;;;0.65;0.60;;;29.90;91.60;;;;;;5054534;28;20197;-80
2022/08/12 12:53:35;;;;;;;0.52;0.52;;;29.80;92.20;;;;;;5048646;28;20221;-80
2022/08/12 12:56:01;;;;;;;0.57;0.57;;;30.30;92.10;;;;;;5042587;28;20178;-81
2022/08/12 12:58:28;;;;;;;0.57;0.55;;;30.20;91.60;;;;;;5036579;28;20175;-81
2022/08/12 13:00:58;;;;;;;1.30;1.13;;;29.80;91.30;;;;;;5026169;28;20175;-80
2022/08/12 13:03:24;;;;;;;0.40;0.40;;;29.90;91.20;;;;;;5047764;28;20619;-81
2022/08/12 13:05:51;;;;;;;0.38;0.38;;;30.20;91.70;;;;;;5050885;28;20201;-81
2022/08/12 13:08:26;;;;;;;0.35;0.30;;;30.00;91.10;;;;;;5047950;28;20186;-81
2022/08/12 13:10:53;;;;;;;0.32;0.32;;;30.10;91.00;;;;;;5040118;28;20193;-80
2022/08/12 13:13:20;;;;;;;0.28;0.28;;;30.40;91.50;;;;;;5047638;28;20184;-81
2022/08/12 13:15:48;;;;;;;0.55;0.55;;;30.80;91.40;;;;;;5035327;28;20193;-81
2022/08/12 13:18:14;;;;;;;0.30;0.30;;;30.50;91.20;;;;;;5036840;28;20282;-80
2022/08/12 13:20:42;;;;;;;0.40;0.40;;;30.20;91.20;;;;;;5049160;28;20217;-80
2022/08/12 13:23:08;;;;;;;0.40;0.40;;;30.50;91.20;;;;;;5044378;28;20181;-81
2022/08/12 13:25:33;;;;;;;0.30;0.30;;;30.30;90.90;;;;;;5046768;28;20214;-80
2022/08/12 13:27:59;;;;;;;0.55;0.55;;;30.00;90.40;;;;;;5047481;28;20201;-81
2022/08/12 13:30:25;;;;;;;0.38;0.38;;;30.00;90.80;;;;;;5039033;28;20202;-80
2022/08/12 13:32:56;;;;;;;2.53;0.50;;;30.00;90.60;;;;;;5047744;28;20174;-81
2022/08/12 13:35:21;;;;;;;0.40;0.40;;;30.50;90.50;;;;;;5036430;28;20198;-81
2022/08/12 13:37:52;;;;;;;0.20;0.20;;;30.40;90.70;;;;;;5038893;28;20268;-81
2022/08/12 13:40:19;;;;;;;1.00;0.98;;;30.90;90.50;;;;;;5043560;28;20210;-81
2022/08/12 13:42:48;;;;;;;0.55;0.55;;;30.60;90.60;;;;;;5036526;28;20182;-81
2022/08/12 13:45:15;;;;;;;0.40;0.40;;;30.90;90.50;;;;;;5048950;28;20202;-81
2022/08/12 13:48:01;;;;;;;0.30;0.30;;;30.90;90.70;;;;;;5045551;28;20223;-81
2022/08/12 13:50:31;;;;;;;0.50;0.50;;;31.30;90.10;;;;;;5038020;28;20235;-80
2022/08/12 13:53:10;;;;;;;0.50;0.50;;;31.20;90.30;;;;;;5041122;28;20181;-81
2022/08/12 13:55:38;;;;;;;0.45;0.45;;;30.70;90.00;;;;;;5039155;28;20194;-81
2022/08/12 13:58:04;;;;;;;0.63;0.57;;;30.50;90.10;;;;;;5047932;28;20320;-81
2022/08/12 14:00:32;;;;;;;0.60;0.60;;;30.60;90.00;;;;;;5047828;28;20665;-81
2022/08/12 14:02:58;;;;;;;0.32;0.32;;;30.50;90.30;;;;;;5050161;28;20260;-81
2022/08/12 14:05:25;;;;;;;1.10;0.68;;;30.70;90.20;;;;;;5042431;28;20758;-81
2022/08/12 14:08:06;;;;;;;0.47;0.47;;;30.30;89.20;;;;;;5050699;28;20573;-80
2022/08/12 14:10:38;;;;;;;0.68;0.35;;;30.50;90.20;;;;;;5038249;28;20210;-81
2022/08/12 14:13:10;;;;;;;0.40;0.40;;;30.50;90.30;;;;;;5045557;28;20189;-81
2022/08/12 14:15:41;;;;;;;0.55;0.55;;;30.60;90.30;;;;;;5042639;28;20256;-81
2022/08/12 14:18:24;;;;;;;0.20;0.20;;;31.10;90.20;;;;;;5038797;28;20182;-80
2022/08/12 14:20:56;;;;;;;1.08;1.08;;;31.60;90.50;;;;;;5046010;28;20284;-80
2022/08/12 14:23:23;;;;;;;0.30;0.30;;;31.40;90.00;;;;;;5047593;28;20182;-80
2022/08/12 14:25:50;;;;;;;0.40;0.40;;;31.70;90.00;;;;;;5046325;28;20197;-80
2022/08/12 14:28:17;;;;;;;0.50;0.40;;;31.50;89.90;;;;;;5036103;28;20178;-80
2022/08/12 14:30:44;;;;;;;0.60;0.57;;;30.90;90.30;;;;;;5036259;28;20205;-80
2022/08/12 14:33:14;;;;;;;0.30;0.30;;;30.60;90.20;;;;;;5027888;28;20550;-80
2022/08/12 14:35:40;;;;;;;0.30;0.30;;;31.20;90.40;;;;;;5031834;28;20232;-80
2022/08/12 14:38:16;;;;;;;0.28;0.28;;;31.30;90.40;;;;;;5032692;28;20644;-80
2022/08/12 14:40:43;;;;;;;0.40;0.40;;;30.90;90.80;;;;;;5040720;28;20185;-80
2022/08/12 14:43:08;;;;;;;0.50;0.50;;;30.70;90.60;;;;;;5034455;28;20659;-80
2022/08/12 14:45:35;;;;;;;0.40;0.40;;;30.40;90.90;;;;;;5038349;28;20254;-80
2022/08/12 14:48:02;;;;;;;0.45;0.45;;;30.50;90.70;;;;;;5033859;28;20219;-79
2022/08/12 14:50:28;;;;;;;1.27;0.40;;;30.40;90.60;;;;;;5045553;28;20206;-80